オスロ の空港の天気 - METARとTAF

オスロ空港 ( ENGM / OSL ) - ノルウェー アーケシュフース県オスロ
飛行場実況気象(Metar)
観測時間08/18 04:50 CEST (08/18 02:50 UTC)
風向・風速東 3m/s
視程5000m
天気現象雨 もや
全天の8割程度の雲 雲底高度 150m
気温13℃
湿度94%
気圧1007hPa
METARENGM 180250Z 09006KT 020V120 5000 RA BR BKN005 13/12 Q1007
過去の天気等 Google飛行場航空写真 Wunderground天気予報

過去48時間のMETAR

飛行場予報(TAF)
発表時間: -
18日3時 CEST ~ 18日6時 CEST に徐々に
全天の8割程度の雲 雲底高度 240m
18日4時 CEST ~ 18日8時 CEST に一時的に
視程2,000m
天気現象しゅう雨 もや
全天の8割程度の雲 雲底高度 120m
全天の4割程度の積乱雲 雲底高度 610m
18日8時 CEST ~ 18日13時 CEST に一時的に
視程2,000m
天気現象弱い霧雨 もや
全天の8割程度の雲 雲底高度 120m
18日13時 CEST ~ 18日15時 CEST に徐々に
風向・風速南 5m/s
全天の4割程度の雲 雲底高度 300m
全天の8割程度の雲 雲底高度 610m
18日14時 CEST ~ 18日23時 CEST に一時的に
天気現象しゅう雨
全天の8割程度の雲 雲底高度 460m
少しの積乱雲 雲底高度 610m
TAF ENGM 1800/1824 VRB05KT 9999 -RA SCT015 BKN040
BECMG 1801/1804 BKN008
TEMPO 1802/1806 2000 SHRA BR BKN004 SCT020CB
TEMPO 1806/1811 2000 -DZ BR BKN004
BECMG 1811/1813 18010KT SCT010 BKN020
TEMPO 1812/1821 SHRA BKN015 FEW020CB